sensor_id;sensor_type;location;lat;lon;timestamp;P1;durP1;ratioP1;P2;durP2;ratioP2
9729;SDS011;4904;49.152;11.004;2024-01-07T00:00:28;8.80;;;7.90;;
9729;SDS011;4904;49.152;11.004;2024-01-07T00:02:56;10.68;;;8.38;;
9729;SDS011;4904;49.152;11.004;2024-01-07T00:05:22;9.30;;;7.93;;
9729;SDS011;4904;49.152;11.004;2024-01-07T00:07:51;11.48;;;7.90;;
9729;SDS011;4904;49.152;11.004;2024-01-07T00:10:17;9.98;;;7.85;;
9729;SDS011;4904;49.152;11.004;2024-01-07T00:12:44;9.95;;;8.32;;
9729;SDS011;4904;49.152;11.004;2024-01-07T00:15:11;9.90;;;7.80;;
9729;SDS011;4904;49.152;11.004;2024-01-07T00:17:38;11.02;;;8.15;;
9729;SDS011;4904;49.152;11.004;2024-01-07T00:20:06;11.25;;;7.65;;
9729;SDS011;4904;49.152;11.004;2024-01-07T00:22:33;12.43;;;8.32;;
9729;SDS011;4904;49.152;11.004;2024-01-07T00:25:01;9.50;;;8.10;;
9729;SDS011;4904;49.152;11.004;2024-01-07T00:27:27;10.43;;;7.85;;
9729;SDS011;4904;49.152;11.004;2024-01-07T00:29:54;9.77;;;8.20;;
9729;SDS011;4904;49.152;11.004;2024-01-07T00:32:21;12.18;;;8.38;;
9729;SDS011;4904;49.152;11.004;2024-01-07T00:34:48;10.45;;;8.13;;
9729;SDS011;4904;49.152;11.004;2024-01-07T00:37:15;8.70;;;7.55;;
9729;SDS011;4904;49.152;11.004;2024-01-07T00:39:42;9.32;;;8.38;;
9729;SDS011;4904;49.152;11.004;2024-01-07T00:42:12;8.80;;;7.93;;
9729;SDS011;4904;49.152;11.004;2024-01-07T00:44:39;9.88;;;7.85;;
9729;SDS011;4904;49.152;11.004;2024-01-07T00:47:06;11.27;;;8.65;;
9729;SDS011;4904;49.152;11.004;2024-01-07T00:49:32;9.23;;;7.57;;
9729;SDS011;4904;49.152;11.004;2024-01-07T00:52:00;11.13;;;7.90;;
9729;SDS011;4904;49.152;11.004;2024-01-07T00:54:26;8.10;;;7.30;;
9729;SDS011;4904;49.152;11.004;2024-01-07T00:56:53;8.60;;;7.63;;
9729;SDS011;4904;49.152;11.004;2024-01-07T00:59:21;10.98;;;8.05;;
9729;SDS011;4904;49.152;11.004;2024-01-07T01:01:48;11.15;;;7.95;;
9729;SDS011;4904;49.152;11.004;2024-01-07T01:04:15;9.88;;;7.80;;
9729;SDS011;4904;49.152;11.004;2024-01-07T01:06:42;13.48;;;8.25;;
9729;SDS011;4904;49.152;11.004;2024-01-07T01:09:09;9.90;;;7.93;;
9729;SDS011;4904;49.152;11.004;2024-01-07T01:11:35;9.07;;;7.95;;
9729;SDS011;4904;49.152;11.004;2024-01-07T01:14:02;9.85;;;7.93;;
9729;SDS011;4904;49.152;11.004;2024-01-07T01:16:30;11.65;;;8.38;;
9729;SDS011;4904;49.152;11.004;2024-01-07T01:18:57;11.45;;;7.57;;
9729;SDS011;4904;49.152;11.004;2024-01-07T01:21:24;9.13;;;7.70;;
9729;SDS011;4904;49.152;11.004;2024-01-07T01:23:51;9.52;;;8.13;;
9729;SDS011;4904;49.152;11.004;2024-01-07T01:26:18;11.55;;;8.35;;
9729;SDS011;4904;49.152;11.004;2024-01-07T01:28:45;10.25;;;7.63;;
9729;SDS011;4904;49.152;11.004;2024-01-07T01:31:12;11.02;;;7.97;;
9729;SDS011;4904;49.152;11.004;2024-01-07T01:33:41;9.60;;;8.00;;
9729;SDS011;4904;49.152;11.004;2024-01-07T01:36:08;9.07;;;7.90;;
9729;SDS011;4904;49.152;11.004;2024-01-07T01:38:35;10.00;;;7.68;;
9729;SDS011;4904;49.152;11.004;2024-01-07T01:41:02;10.07;;;7.82;;
9729;SDS011;4904;49.152;11.004;2024-01-07T01:43:29;9.40;;;7.70;;
9729;SDS011;4904;49.152;11.004;2024-01-07T01:45:56;11.25;;;8.45;;
9729;SDS011;4904;49.152;11.004;2024-01-07T01:48:25;9.93;;;8.48;;
9729;SDS011;4904;49.152;11.004;2024-01-07T01:50:54;11.57;;;7.15;;
9729;SDS011;4904;49.152;11.004;2024-01-07T01:53:23;10.15;;;8.73;;
9729;SDS011;4904;49.152;11.004;2024-01-07T01:55:51;12.45;;;8.65;;
9729;SDS011;4904;49.152;11.004;2024-01-07T01:58:19;9.63;;;8.50;;
9729;SDS011;4904;49.152;11.004;2024-01-07T02:00:46;11.40;;;9.38;;
9729;SDS011;4904;49.152;11.004;2024-01-07T02:03:14;11.55;;;8.00;;
9729;SDS011;4904;49.152;11.004;2024-01-07T02:05:41;9.15;;;8.25;;
9729;SDS011;4904;49.152;11.004;2024-01-07T02:08:09;10.95;;;8.52;;
9729;SDS011;4904;49.152;11.004;2024-01-07T02:10:37;10.48;;;7.78;;
9729;SDS011;4904;49.152;11.004;2024-01-07T02:13:04;10.43;;;8.55;;
9729;SDS011;4904;49.152;11.004;2024-01-07T02:15:31;10.63;;;8.35;;
9729;SDS011;4904;49.152;11.004;2024-01-07T02:17:58;11.18;;;8.02;;
9729;SDS011;4904;49.152;11.004;2024-01-07T02:20:25;10.38;;;8.50;;
9729;SDS011;4904;49.152;11.004;2024-01-07T02:22:52;9.48;;;8.48;;
9729;SDS011;4904;49.152;11.004;2024-01-07T02:25:20;11.65;;;8.68;;
9729;SDS011;4904;49.152;11.004;2024-01-07T02:27:47;10.57;;;8.30;;
9729;SDS011;4904;49.152;11.004;2024-01-07T02:30:14;11.00;;;8.93;;
9729;SDS011;4904;49.152;11.004;2024-01-07T02:32:42;8.98;;;8.07;;
9729;SDS011;4904;49.152;11.004;2024-01-07T02:35:09;11.88;;;9.20;;
9729;SDS011;4904;49.152;11.004;2024-01-07T02:37:35;10.32;;;8.32;;
9729;SDS011;4904;49.152;11.004;2024-01-07T02:40:02;10.70;;;9.05;;
9729;SDS011;4904;49.152;11.004;2024-01-07T02:42:31;10.82;;;8.90;;
9729;SDS011;4904;49.152;11.004;2024-01-07T02:44:58;12.90;;;8.65;;
9729;SDS011;4904;49.152;11.004;2024-01-07T02:47:25;11.57;;;9.02;;
9729;SDS011;4904;49.152;11.004;2024-01-07T02:49:52;10.48;;;9.30;;
9729;SDS011;4904;49.152;11.004;2024-01-07T02:52:19;13.40;;;9.43;;
9729;SDS011;4904;49.152;11.004;2024-01-07T02:54:46;11.40;;;9.98;;
9729;SDS011;4904;49.152;11.004;2024-01-07T02:57:13;12.18;;;8.85;;
9729;SDS011;4904;49.152;11.004;2024-01-07T02:59:41;10.07;;;9.00;;
9729;SDS011;4904;49.152;11.004;2024-01-07T03:02:08;12.38;;;8.93;;
9729;SDS011;4904;49.152;11.004;2024-01-07T03:04:35;11.73;;;9.13;;
9729;SDS011;4904;49.152;11.004;2024-01-07T03:07:02;13.30;;;9.52;;
9729;SDS011;4904;49.152;11.004;2024-01-07T03:09:28;11.80;;;9.88;;
9729;SDS011;4904;49.152;11.004;2024-01-07T03:11:55;10.15;;;9.15;;
9729;SDS011;4904;49.152;11.004;2024-01-07T03:14:22;13.20;;;9.70;;
9729;SDS011;4904;49.152;11.004;2024-01-07T03:16:50;12.73;;;9.77;;
9729;SDS011;4904;49.152;11.004;2024-01-07T03:19:17;12.00;;;10.10;;
9729;SDS011;4904;49.152;11.004;2024-01-07T03:21:45;11.07;;;9.48;;
9729;SDS011;4904;49.152;11.004;2024-01-07T03:24:14;11.30;;;9.63;;
9729;SDS011;4904;49.152;11.004;2024-01-07T03:26:40;12.73;;;9.63;;
9729;SDS011;4904;49.152;11.004;2024-01-07T03:29:07;12.82;;;9.57;;
9729;SDS011;4904;49.152;11.004;2024-01-07T03:31:34;10.98;;;8.93;;
9729;SDS011;4904;49.152;11.004;2024-01-07T03:34:02;9.25;;;8.30;;
9729;SDS011;4904;49.152;11.004;2024-01-07T03:36:29;10.55;;;9.13;;
9729;SDS011;4904;49.152;11.004;2024-01-07T03:38:56;11.38;;;9.02;;
9729;SDS011;4904;49.152;11.004;2024-01-07T03:41:23;8.93;;;7.93;;
9729;SDS011;4904;49.152;11.004;2024-01-07T03:43:50;12.23;;;8.77;;
9729;SDS011;4904;49.152;11.004;2024-01-07T03:46:18;11.10;;;8.45;;
9729;SDS011;4904;49.152;11.004;2024-01-07T03:48:45;11.20;;;8.80;;
9729;SDS011;4904;49.152;11.004;2024-01-07T03:51:14;11.00;;;8.43;;
9729;SDS011;4904;49.152;11.004;2024-01-07T03:53:41;9.32;;;8.20;;
9729;SDS011;4904;49.152;11.004;2024-01-07T03:56:07;9.65;;;8.65;;
9729;SDS011;4904;49.152;11.004;2024-01-07T03:58:34;11.57;;;8.68;;
9729;SDS011;4904;49.152;11.004;2024-01-07T04:01:01;10.88;;;7.82;;
9729;SDS011;4904;49.152;11.004;2024-01-07T04:03:28;8.55;;;7.65;;
9729;SDS011;4904;49.152;11.004;2024-01-07T04:05:55;9.45;;;8.07;;
9729;SDS011;4904;49.152;11.004;2024-01-07T04:08:23;9.80;;;8.00;;
9729;SDS011;4904;49.152;11.004;2024-01-07T04:10:50;8.82;;;7.72;;
9729;SDS011;4904;49.152;11.004;2024-01-07T04:13:17;9.75;;;7.13;;
9729;SDS011;4904;49.152;11.004;2024-01-07T04:15:44;9.30;;;7.85;;
9729;SDS011;4904;49.152;11.004;2024-01-07T04:18:11;9.02;;;6.90;;
9729;SDS011;4904;49.152;11.004;2024-01-07T04:20:37;9.95;;;7.18;;
9729;SDS011;4904;49.152;11.004;2024-01-07T04:23:04;9.00;;;7.10;;
9729;SDS011;4904;49.152;11.004;2024-01-07T04:25:32;9.10;;;7.82;;
9729;SDS011;4904;49.152;11.004;2024-01-07T04:27:59;8.73;;;6.95;;
9729;SDS011;4904;49.152;11.004;2024-01-07T04:30:26;8.50;;;6.88;;
9729;SDS011;4904;49.152;11.004;2024-01-07T04:32:53;9.02;;;7.13;;
9729;SDS011;4904;49.152;11.004;2024-01-07T04:35:20;7.97;;;6.70;;
9729;SDS011;4904;49.152;11.004;2024-01-07T04:37:47;7.95;;;6.88;;
9729;SDS011;4904;49.152;11.004;2024-01-07T04:40:13;9.60;;;7.60;;
9729;SDS011;4904;49.152;11.004;2024-01-07T04:42:42;7.97;;;7.10;;
9729;SDS011;4904;49.152;11.004;2024-01-07T04:45:09;9.88;;;6.40;;
9729;SDS011;4904;49.152;11.004;2024-01-07T04:47:35;9.30;;;7.35;;
9729;SDS011;4904;49.152;11.004;2024-01-07T04:50:03;9.05;;;7.07;;
9729;SDS011;4904;49.152;11.004;2024-01-07T04:52:30;8.85;;;7.40;;
9729;SDS011;4904;49.152;11.004;2024-01-07T04:54:57;7.72;;;6.70;;
9729;SDS011;4904;49.152;11.004;2024-01-07T04:57:24;9.45;;;7.00;;
9729;SDS011;4904;49.152;11.004;2024-01-07T04:59:52;8.02;;;6.78;;
9729;SDS011;4904;49.152;11.004;2024-01-07T05:02:19;8.75;;;7.15;;
9729;SDS011;4904;49.152;11.004;2024-01-07T05:04:46;8.85;;;7.10;;
9729;SDS011;4904;49.152;11.004;2024-01-07T05:07:13;10.00;;;7.03;;
9729;SDS011;4904;49.152;11.004;2024-01-07T05:09:40;8.52;;;7.13;;
9729;SDS011;4904;49.152;11.004;2024-01-07T05:12:07;9.00;;;7.20;;
9729;SDS011;4904;49.152;11.004;2024-01-07T05:14:33;8.73;;;7.35;;
9729;SDS011;4904;49.152;11.004;2024-01-07T05:17:03;8.55;;;7.40;;
9729;SDS011;4904;49.152;11.004;2024-01-07T05:19:30;8.93;;;7.35;;
9729;SDS011;4904;49.152;11.004;2024-01-07T05:21:57;8.75;;;6.95;;
9729;SDS011;4904;49.152;11.004;2024-01-07T05:24:25;10.05;;;7.18;;
9729;SDS011;4904;49.152;11.004;2024-01-07T05:26:52;8.93;;;7.35;;
9729;SDS011;4904;49.152;11.004;2024-01-07T05:29:19;8.43;;;7.40;;
9729;SDS011;4904;49.152;11.004;2024-01-07T05:31:47;7.90;;;6.88;;
9729;SDS011;4904;49.152;11.004;2024-01-07T05:34:16;8.82;;;7.15;;
9729;SDS011;4904;49.152;11.004;2024-01-07T05:36:43;9.00;;;7.78;;
9729;SDS011;4904;49.152;11.004;2024-01-07T05:39:10;8.90;;;7.55;;
9729;SDS011;4904;49.152;11.004;2024-01-07T05:41:37;12.18;;;7.13;;
9729;SDS011;4904;49.152;11.004;2024-01-07T05:44:06;9.02;;;6.80;;
9729;SDS011;4904;49.152;11.004;2024-01-07T05:46:33;9.20;;;7.07;;
9729;SDS011;4904;49.152;11.004;2024-01-07T05:49:00;9.23;;;7.10;;
9729;SDS011;4904;49.152;11.004;2024-01-07T05:51:28;10.57;;;7.50;;
9729;SDS011;4904;49.152;11.004;2024-01-07T05:53:55;9.10;;;7.15;;
9729;SDS011;4904;49.152;11.004;2024-01-07T05:56:22;9.23;;;7.35;;
9729;SDS011;4904;49.152;11.004;2024-01-07T05:58:49;8.45;;;7.00;;
9729;SDS011;4904;49.152;11.004;2024-01-07T06:01:18;8.95;;;7.28;;
9729;SDS011;4904;49.152;11.004;2024-01-07T06:03:45;9.63;;;8.10;;
9729;SDS011;4904;49.152;11.004;2024-01-07T06:06:12;9.70;;;7.47;;
9729;SDS011;4904;49.152;11.004;2024-01-07T06:08:41;9.20;;;7.43;;
9729;SDS011;4904;49.152;11.004;2024-01-07T06:11:08;9.38;;;7.43;;
9729;SDS011;4904;49.152;11.004;2024-01-07T06:13:35;9.40;;;7.20;;
9729;SDS011;4904;49.152;11.004;2024-01-07T06:16:02;9.68;;;7.28;;
9729;SDS011;4904;49.152;11.004;2024-01-07T06:18:30;8.10;;;6.38;;
9729;SDS011;4904;49.152;11.004;2024-01-07T06:20:56;9.73;;;7.07;;
9729;SDS011;4904;49.152;11.004;2024-01-07T06:23:23;8.25;;;6.65;;
9729;SDS011;4904;49.152;11.004;2024-01-07T06:25:51;8.98;;;7.22;;
9729;SDS011;4904;49.152;11.004;2024-01-07T06:28:18;7.87;;;7.03;;
9729;SDS011;4904;49.152;11.004;2024-01-07T06:30:46;7.75;;;6.25;;
9729;SDS011;4904;49.152;11.004;2024-01-07T06:33:12;7.40;;;6.63;;
9729;SDS011;4904;49.152;11.004;2024-01-07T06:35:40;6.93;;;6.22;;
9729;SDS011;4904;49.152;11.004;2024-01-07T06:38:07;7.50;;;6.15;;
9729;SDS011;4904;49.152;11.004;2024-01-07T06:40:34;6.82;;;5.95;;
9729;SDS011;4904;49.152;11.004;2024-01-07T06:43:02;6.75;;;5.75;;
9729;SDS011;4904;49.152;11.004;2024-01-07T06:45:29;7.53;;;6.13;;
9729;SDS011;4904;49.152;11.004;2024-01-07T06:47:56;6.57;;;5.50;;
9729;SDS011;4904;49.152;11.004;2024-01-07T06:50:23;6.68;;;5.53;;
9729;SDS011;4904;49.152;11.004;2024-01-07T06:52:50;7.28;;;5.60;;
9729;SDS011;4904;49.152;11.004;2024-01-07T06:55:17;6.80;;;5.50;;
9729;SDS011;4904;49.152;11.004;2024-01-07T06:57:44;7.23;;;5.63;;
9729;SDS011;4904;49.152;11.004;2024-01-07T07:00:13;6.97;;;5.75;;
9729;SDS011;4904;49.152;11.004;2024-01-07T07:02:40;7.35;;;5.70;;
9729;SDS011;4904;49.152;11.004;2024-01-07T07:05:07;8.05;;;5.93;;
9729;SDS011;4904;49.152;11.004;2024-01-07T07:07:34;7.38;;;5.70;;
9729;SDS011;4904;49.152;11.004;2024-01-07T07:10:01;6.40;;;5.25;;
9729;SDS011;4904;49.152;11.004;2024-01-07T07:12:28;6.47;;;5.57;;
9729;SDS011;4904;49.152;11.004;2024-01-07T07:14:55;6.60;;;5.57;;
9729;SDS011;4904;49.152;11.004;2024-01-07T07:17:24;8.63;;;6.57;;
9729;SDS011;4904;49.152;11.004;2024-01-07T07:19:50;6.68;;;5.63;;
9729;SDS011;4904;49.152;11.004;2024-01-07T07:22:17;8.07;;;6.40;;
9729;SDS011;4904;49.152;11.004;2024-01-07T07:24:44;7.37;;;6.17;;
9729;SDS011;4904;49.152;11.004;2024-01-07T07:27:11;7.47;;;6.18;;
9729;SDS011;4904;49.152;11.004;2024-01-07T07:29:38;8.63;;;6.70;;
9729;SDS011;4904;49.152;11.004;2024-01-07T07:32:05;8.27;;;6.37;;
9729;SDS011;4904;49.152;11.004;2024-01-07T07:34:34;8.07;;;6.47;;
9729;SDS011;4904;49.152;11.004;2024-01-07T07:37:02;9.13;;;7.20;;
9729;SDS011;4904;49.152;11.004;2024-01-07T07:39:28;8.60;;;7.20;;
9729;SDS011;4904;49.152;11.004;2024-01-07T07:41:55;8.17;;;7.17;;
9729;SDS011;4904;49.152;11.004;2024-01-07T07:44:22;8.88;;;6.70;;
9729;SDS011;4904;49.152;11.004;2024-01-07T07:46:49;10.15;;;6.90;;
9729;SDS011;4904;49.152;11.004;2024-01-07T07:49:16;8.95;;;6.85;;
9729;SDS011;4904;49.152;11.004;2024-01-07T07:51:44;8.65;;;6.90;;
9729;SDS011;4904;49.152;11.004;2024-01-07T07:54:11;9.32;;;6.82;;
9729;SDS011;4904;49.152;11.004;2024-01-07T07:56:38;9.27;;;7.03;;
9729;SDS011;4904;49.152;11.004;2024-01-07T07:59:05;8.90;;;7.20;;
9729;SDS011;4904;49.152;11.004;2024-01-07T08:01:33;9.93;;;7.70;;
9729;SDS011;4904;49.152;11.004;2024-01-07T08:04:00;11.00;;;8.10;;
9729;SDS011;4904;49.152;11.004;2024-01-07T08:06:30;9.43;;;7.33;;
9729;SDS011;4904;49.152;11.004;2024-01-07T08:08:58;9.88;;;7.88;;
9729;SDS011;4904;49.152;11.004;2024-01-07T08:11:25;9.93;;;8.00;;
9729;SDS011;4904;49.152;11.004;2024-01-07T08:13:51;8.77;;;7.10;;
9729;SDS011;4904;49.152;11.004;2024-01-07T08:16:18;11.17;;;7.90;;
9729;SDS011;4904;49.152;11.004;2024-01-07T08:18:45;9.97;;;7.30;;
9729;SDS011;4904;49.152;11.004;2024-01-07T08:21:12;10.13;;;7.70;;
9729;SDS011;4904;49.152;11.004;2024-01-07T08:23:39;9.30;;;7.13;;
9729;SDS011;4904;49.152;11.004;2024-01-07T08:26:07;10.43;;;7.93;;
9729;SDS011;4904;49.152;11.004;2024-01-07T08:28:34;9.27;;;7.60;;
9729;SDS011;4904;49.152;11.004;2024-01-07T08:31:01;11.97;;;8.23;;
9729;SDS011;4904;49.152;11.004;2024-01-07T08:33:28;10.60;;;8.10;;
9729;SDS011;4904;49.152;11.004;2024-01-07T08:35:58;11.07;;;8.50;;
9729;SDS011;4904;49.152;11.004;2024-01-07T08:38:25;10.30;;;7.50;;
9729;SDS011;4904;49.152;11.004;2024-01-07T08:40:51;9.07;;;7.47;;
9729;SDS011;4904;49.152;11.004;2024-01-07T08:43:20;9.20;;;7.25;;
9729;SDS011;4904;49.152;11.004;2024-01-07T08:45:46;12.27;;;8.27;;
9729;SDS011;4904;49.152;11.004;2024-01-07T08:48:13;12.23;;;8.50;;
9729;SDS011;4904;49.152;11.004;2024-01-07T08:50:40;9.20;;;7.90;;
9729;SDS011;4904;49.152;11.004;2024-01-07T08:53:07;9.60;;;7.83;;
9729;SDS011;4904;49.152;11.004;2024-01-07T08:55:34;11.13;;;8.20;;
9729;SDS011;4904;49.152;11.004;2024-01-07T08:58:01;9.63;;;7.90;;
9729;SDS011;4904;49.152;11.004;2024-01-07T09:00:29;11.97;;;8.50;;
9729;SDS011;4904;49.152;11.004;2024-01-07T09:02:56;10.83;;;8.10;;
9729;SDS011;4904;49.152;11.004;2024-01-07T09:05:23;10.97;;;8.87;;
9729;SDS011;4904;49.152;11.004;2024-01-07T09:07:50;11.13;;;9.00;;
9729;SDS011;4904;49.152;11.004;2024-01-07T09:10:17;10.67;;;8.90;;
9729;SDS011;4904;49.152;11.004;2024-01-07T09:12:44;10.37;;;8.40;;
9729;SDS011;4904;49.152;11.004;2024-01-07T09:15:11;13.13;;;9.83;;
9729;SDS011;4904;49.152;11.004;2024-01-07T09:17:39;14.80;;;9.65;;
9729;SDS011;4904;49.152;11.004;2024-01-07T09:20:07;12.27;;;9.30;;
9729;SDS011;4904;49.152;11.004;2024-01-07T09:22:34;11.37;;;9.33;;
9729;SDS011;4904;49.152;11.004;2024-01-07T09:25:02;10.63;;;8.70;;
9729;SDS011;4904;49.152;11.004;2024-01-07T09:27:29;11.00;;;8.87;;
9729;SDS011;4904;49.152;11.004;2024-01-07T09:29:56;14.07;;;9.70;;
9729;SDS011;4904;49.152;11.004;2024-01-07T09:32:23;11.47;;;9.10;;
9729;SDS011;4904;49.152;11.004;2024-01-07T09:34:52;12.53;;;9.80;;
9729;SDS011;4904;49.152;11.004;2024-01-07T09:37:24;15.50;;;10.43;;
9729;SDS011;4904;49.152;11.004;2024-01-07T09:39:52;13.70;;;10.00;;
9729;SDS011;4904;49.152;11.004;2024-01-07T09:42:19;13.03;;;9.73;;
9729;SDS011;4904;49.152;11.004;2024-01-07T09:44:46;12.40;;;9.57;;
9729;SDS011;4904;49.152;11.004;2024-01-07T09:47:14;11.93;;;9.53;;
9729;SDS011;4904;49.152;11.004;2024-01-07T09:49:41;10.80;;;9.30;;
9729;SDS011;4904;49.152;11.004;2024-01-07T09:52:11;11.23;;;9.07;;
9729;SDS011;4904;49.152;11.004;2024-01-07T09:54:38;12.57;;;10.02;;
9729;SDS011;4904;49.152;11.004;2024-01-07T09:57:07;10.80;;;9.20;;
9729;SDS011;4904;49.152;11.004;2024-01-07T09:59:35;13.43;;;9.20;;
9729;SDS011;4904;49.152;11.004;2024-01-07T10:02:04;12.30;;;9.47;;
9729;SDS011;4904;49.152;11.004;2024-01-07T10:04:31;12.00;;;9.83;;
9729;SDS011;4904;49.152;11.004;2024-01-07T10:06:57;10.83;;;9.07;;
9729;SDS011;4904;49.152;11.004;2024-01-07T10:09:28;12.67;;;9.70;;
9729;SDS011;4904;49.152;11.004;2024-01-07T10:11:56;13.00;;;10.63;;
9729;SDS011;4904;49.152;11.004;2024-01-07T10:14:22;14.33;;;11.33;;
9729;SDS011;4904;49.152;11.004;2024-01-07T10:16:51;15.23;;;10.57;;
9729;SDS011;4904;49.152;11.004;2024-01-07T10:19:19;13.10;;;9.63;;
9729;SDS011;4904;49.152;11.004;2024-01-07T10:21:48;15.30;;;11.50;;
9729;SDS011;4904;49.152;11.004;2024-01-07T10:24:27;15.43;;;11.50;;
9729;SDS011;4904;49.152;11.004;2024-01-07T10:27:02;14.30;;;11.17;;
9729;SDS011;4904;49.152;11.004;2024-01-07T10:29:29;13.03;;;10.23;;
9729;SDS011;4904;49.152;11.004;2024-01-07T10:31:56;14.20;;;10.90;;
9729;SDS011;4904;49.152;11.004;2024-01-07T10:34:24;13.50;;;10.80;;
9729;SDS011;4904;49.152;11.004;2024-01-07T10:36:52;12.67;;;10.27;;
9729;SDS011;4904;49.152;11.004;2024-01-07T10:39:23;12.97;;;9.80;;
9729;SDS011;4904;49.152;11.004;2024-01-07T10:41:52;15.63;;;11.03;;
9729;SDS011;4904;49.152;11.004;2024-01-07T10:44:22;15.37;;;10.13;;
9729;SDS011;4904;49.152;11.004;2024-01-07T10:46:51;15.23;;;10.93;;
9729;SDS011;4904;49.152;11.004;2024-01-07T10:49:21;15.80;;;11.53;;
9729;SDS011;4904;49.152;11.004;2024-01-07T10:51:51;14.63;;;11.07;;
9729;SDS011;4904;49.152;11.004;2024-01-07T10:54:25;13.93;;;10.87;;
9729;SDS011;4904;49.152;11.004;2024-01-07T10:56:57;14.83;;;11.17;;
9729;SDS011;4904;49.152;11.004;2024-01-07T10:59:25;14.10;;;10.93;;
9729;SDS011;4904;49.152;11.004;2024-01-07T11:01:54;14.37;;;9.93;;
9729;SDS011;4904;49.152;11.004;2024-01-07T11:04:22;16.53;;;12.30;;
9729;SDS011;4904;49.152;11.004;2024-01-07T11:06:57;16.10;;;11.40;;
9729;SDS011;4904;49.152;11.004;2024-01-07T11:09:31;15.53;;;10.63;;
9729;SDS011;4904;49.152;11.004;2024-01-07T11:12:04;13.73;;;9.60;;
9729;SDS011;4904;49.152;11.004;2024-01-07T11:14:35;15.93;;;10.80;;
9729;SDS011;4904;49.152;11.004;2024-01-07T11:17:04;14.00;;;10.90;;
9729;SDS011;4904;49.152;11.004;2024-01-07T11:19:31;14.03;;;10.27;;
9729;SDS011;4904;49.152;11.004;2024-01-07T11:24:49;13.47;;;10.20;;
9729;SDS011;4904;49.152;11.004;2024-01-07T11:27:17;15.73;;;12.30;;
9729;SDS011;4904;49.152;11.004;2024-01-07T11:29:50;16.30;;;11.80;;
9729;SDS011;4904;49.152;11.004;2024-01-07T11:32:21;15.43;;;11.47;;
9729;SDS011;4904;49.152;11.004;2024-01-07T11:34:50;15.83;;;12.67;;
9729;SDS011;4904;49.152;11.004;2024-01-07T11:37:18;16.07;;;10.83;;
9729;SDS011;4904;49.152;11.004;2024-01-07T11:39:46;17.40;;;12.63;;
9729;SDS011;4904;49.152;11.004;2024-01-07T11:42:14;14.33;;;10.67;;
9729;SDS011;4904;49.152;11.004;2024-01-07T11:44:46;17.57;;;12.27;;
9729;SDS011;4904;49.152;11.004;2024-01-07T11:47:14;17.03;;;11.80;;
9729;SDS011;4904;49.152;11.004;2024-01-07T11:49:42;15.33;;;11.43;;
9729;SDS011;4904;49.152;11.004;2024-01-07T11:52:09;15.17;;;10.67;;
9729;SDS011;4904;49.152;11.004;2024-01-07T11:54:36;15.07;;;11.60;;
9729;SDS011;4904;49.152;11.004;2024-01-07T11:57:04;18.87;;;14.23;;
9729;SDS011;4904;49.152;11.004;2024-01-07T11:59:31;18.30;;;12.97;;
9729;SDS011;4904;49.152;11.004;2024-01-07T12:02:00;16.23;;;12.00;;
9729;SDS011;4904;49.152;11.004;2024-01-07T12:04:29;15.60;;;11.93;;
9729;SDS011;4904;49.152;11.004;2024-01-07T12:06:56;15.93;;;11.03;;
9729;SDS011;4904;49.152;11.004;2024-01-07T12:09:23;15.00;;;11.52;;
9729;SDS011;4904;49.152;11.004;2024-01-07T12:11:50;13.03;;;10.33;;
9729;SDS011;4904;49.152;11.004;2024-01-07T12:14:18;15.83;;;11.30;;
9729;SDS011;4904;49.152;11.004;2024-01-07T12:16:45;16.07;;;11.10;;
9729;SDS011;4904;49.152;11.004;2024-01-07T12:19:14;15.00;;;11.20;;
9729;SDS011;4904;49.152;11.004;2024-01-07T12:21:41;14.93;;;10.93;;
9729;SDS011;4904;49.152;11.004;2024-01-07T12:24:08;14.50;;;10.50;;
9729;SDS011;4904;49.152;11.004;2024-01-07T12:26:35;15.83;;;10.97;;
9729;SDS011;4904;49.152;11.004;2024-01-07T12:29:02;14.90;;;10.53;;
9729;SDS011;4904;49.152;11.004;2024-01-07T12:31:31;15.55;;;10.90;;
9729;SDS011;4904;49.152;11.004;2024-01-07T12:33:59;15.87;;;10.83;;
9729;SDS011;4904;49.152;11.004;2024-01-07T12:36:30;14.27;;;10.57;;
9729;SDS011;4904;49.152;11.004;2024-01-07T12:38:57;14.07;;;10.23;;
9729;SDS011;4904;49.152;11.004;2024-01-07T12:41:24;14.00;;;10.90;;
9729;SDS011;4904;49.152;11.004;2024-01-07T12:43:51;14.63;;;10.67;;
9729;SDS011;4904;49.152;11.004;2024-01-07T12:46:18;13.97;;;10.67;;
9729;SDS011;4904;49.152;11.004;2024-01-07T12:48:45;13.63;;;10.43;;
9729;SDS011;4904;49.152;11.004;2024-01-07T12:51:12;15.73;;;11.17;;
9729;SDS011;4904;49.152;11.004;2024-01-07T12:53:40;16.33;;;10.70;;
9729;SDS011;4904;49.152;11.004;2024-01-07T12:56:08;13.80;;;10.60;;
9729;SDS011;4904;49.152;11.004;2024-01-07T12:58:35;21.53;;;14.33;;
9729;SDS011;4904;49.152;11.004;2024-01-07T13:01:02;22.83;;;15.67;;
9729;SDS011;4904;49.152;11.004;2024-01-07T13:03:29;13.90;;;10.90;;
9729;SDS011;4904;49.152;11.004;2024-01-07T13:05:57;12.77;;;9.73;;
9729;SDS011;4904;49.152;11.004;2024-01-07T13:08:24;15.70;;;11.37;;
9729;SDS011;4904;49.152;11.004;2024-01-07T13:10:53;14.57;;;11.10;;
9729;SDS011;4904;49.152;11.004;2024-01-07T13:13:21;13.77;;;10.83;;
9729;SDS011;4904;49.152;11.004;2024-01-07T13:15:47;14.80;;;10.93;;
9729;SDS011;4904;49.152;11.004;2024-01-07T13:18:16;14.13;;;11.07;;
9729;SDS011;4904;49.152;11.004;2024-01-07T13:20:43;14.47;;;11.00;;
9729;SDS011;4904;49.152;11.004;2024-01-07T13:23:09;16.03;;;11.77;;
9729;SDS011;4904;49.152;11.004;2024-01-07T13:25:36;19.10;;;13.43;;
9729;SDS011;4904;49.152;11.004;2024-01-07T13:28:05;16.73;;;11.40;;
9729;SDS011;4904;49.152;11.004;2024-01-07T13:30:35;16.63;;;11.67;;
9729;SDS011;4904;49.152;11.004;2024-01-07T13:33:03;20.77;;;13.23;;
9729;SDS011;4904;49.152;11.004;2024-01-07T13:35:30;15.47;;;12.07;;
9729;SDS011;4904;49.152;11.004;2024-01-07T13:37:56;17.20;;;11.50;;
9729;SDS011;4904;49.152;11.004;2024-01-07T13:40:24;22.03;;;13.70;;
9729;SDS011;4904;49.152;11.004;2024-01-07T13:42:52;15.37;;;10.63;;
9729;SDS011;4904;49.152;11.004;2024-01-07T13:45:20;14.97;;;9.33;;
9729;SDS011;4904;49.152;11.004;2024-01-07T13:47:48;29.97;;;14.93;;
9729;SDS011;4904;49.152;11.004;2024-01-07T13:50:15;15.67;;;10.57;;
9729;SDS011;4904;49.152;11.004;2024-01-07T13:52:42;26.50;;;14.47;;
9729;SDS011;4904;49.152;11.004;2024-01-07T13:55:09;16.80;;;10.50;;
9729;SDS011;4904;49.152;11.004;2024-01-07T13:57:36;15.17;;;10.37;;
9729;SDS011;4904;49.152;11.004;2024-01-07T14:00:04;13.63;;;9.40;;
9729;SDS011;4904;49.152;11.004;2024-01-07T14:02:35;10.87;;;8.60;;
9729;SDS011;4904;49.152;11.004;2024-01-07T14:05:04;19.47;;;11.73;;
9729;SDS011;4904;49.152;11.004;2024-01-07T14:07:33;16.40;;;10.63;;
9729;SDS011;4904;49.152;11.004;2024-01-07T14:10:00;21.20;;;12.07;;
9729;SDS011;4904;49.152;11.004;2024-01-07T14:12:28;11.87;;;9.43;;
9729;SDS011;4904;49.152;11.004;2024-01-07T14:14:56;14.30;;;9.60;;
9729;SDS011;4904;49.152;11.004;2024-01-07T14:17:22;12.00;;;8.97;;
9729;SDS011;4904;49.152;11.004;2024-01-07T14:19:51;12.67;;;8.53;;
9729;SDS011;4904;49.152;11.004;2024-01-07T14:22:18;12.13;;;8.47;;
9729;SDS011;4904;49.152;11.004;2024-01-07T14:24:45;11.57;;;8.40;;
9729;SDS011;4904;49.152;11.004;2024-01-07T14:27:13;11.97;;;8.40;;
9729;SDS011;4904;49.152;11.004;2024-01-07T14:29:40;10.53;;;8.13;;
9729;SDS011;4904;49.152;11.004;2024-01-07T14:32:07;12.87;;;8.73;;
9729;SDS011;4904;49.152;11.004;2024-01-07T14:34:37;12.70;;;8.90;;
9729;SDS011;4904;49.152;11.004;2024-01-07T14:37:07;13.53;;;9.23;;
9729;SDS011;4904;49.152;11.004;2024-01-07T14:39:35;13.07;;;9.20;;
9729;SDS011;4904;49.152;11.004;2024-01-07T14:42:02;12.83;;;7.63;;
9729;SDS011;4904;49.152;11.004;2024-01-07T14:44:29;9.77;;;8.30;;
9729;SDS011;4904;49.152;11.004;2024-01-07T14:46:56;10.83;;;8.43;;
9729;SDS011;4904;49.152;11.004;2024-01-07T14:49:23;10.73;;;8.10;;
9729;SDS011;4904;49.152;11.004;2024-01-07T14:51:51;13.37;;;8.83;;
9729;SDS011;4904;49.152;11.004;2024-01-07T14:54:19;11.43;;;7.90;;